sensor_id;sensor_type;location;lat;lon;timestamp;P1;durP1;ratioP1;P2;durP2;ratioP2
56201;SDS011;42117;50.360;3.508;2022-10-01T00:00:11;3.03;;;2.73;;
56201;SDS011;42117;50.360;3.508;2022-10-01T00:02:37;3.33;;;2.70;;
56201;SDS011;42117;50.360;3.508;2022-10-01T00:05:06;6.80;;;3.78;;
56201;SDS011;42117;50.360;3.508;2022-10-01T00:07:44;3.97;;;3.25;;
56201;SDS011;42117;50.360;3.508;2022-10-01T00:10:11;5.53;;;2.58;;
56201;SDS011;42117;50.360;3.508;2022-10-01T00:12:38;6.03;;;4.45;;
56201;SDS011;42117;50.360;3.508;2022-10-01T00:15:04;2.63;;;1.95;;
56201;SDS011;42117;50.360;3.508;2022-10-01T00:17:33;5.75;;;2.03;;
56201;SDS011;42117;50.360;3.508;2022-10-01T00:20:00;1.27;;;1.08;;
56201;SDS011;42117;50.360;3.508;2022-10-01T00:22:26;6.82;;;3.78;;
56201;SDS011;42117;50.360;3.508;2022-10-01T00:24:53;1.75;;;1.58;;
56201;SDS011;42117;50.360;3.508;2022-10-01T00:27:19;2.60;;;1.88;;
56201;SDS011;42117;50.360;3.508;2022-10-01T00:29:45;2.53;;;2.33;;
56201;SDS011;42117;50.360;3.508;2022-10-01T00:32:11;6.13;;;2.53;;
56201;SDS011;42117;50.360;3.508;2022-10-01T00:34:37;5.15;;;2.47;;
56201;SDS011;42117;50.360;3.508;2022-10-01T00:37:03;4.57;;;3.47;;
56201;SDS011;42117;50.360;3.508;2022-10-01T00:39:29;5.18;;;2.55;;
56201;SDS011;42117;50.360;3.508;2022-10-01T00:41:55;3.22;;;1.48;;
56201;SDS011;42117;50.360;3.508;2022-10-01T00:46:50;1.75;;;1.63;;
56201;SDS011;42117;50.360;3.508;2022-10-01T00:49:18;6.00;;;2.15;;
56201;SDS011;42117;50.360;3.508;2022-10-01T00:51:54;9.93;;;3.80;;
56201;SDS011;42117;50.360;3.508;2022-10-01T00:54:23;5.50;;;2.58;;
56201;SDS011;42117;50.360;3.508;2022-10-01T00:56:50;5.07;;;3.25;;
56201;SDS011;42117;50.360;3.508;2022-10-01T00:59:18;7.32;;;2.35;;
56201;SDS011;42117;50.360;3.508;2022-10-01T01:01:45;5.25;;;3.38;;
56201;SDS011;42117;50.360;3.508;2022-10-01T01:04:11;3.42;;;2.40;;
56201;SDS011;42117;50.360;3.508;2022-10-01T01:06:47;11.65;;;3.38;;
56201;SDS011;42117;50.360;3.508;2022-10-01T01:09:22;7.90;;;3.03;;
56201;SDS011;42117;50.360;3.508;2022-10-01T01:22:14;2.58;;;2.05;;
56201;SDS011;42117;50.360;3.508;2022-10-01T01:24:50;8.98;;;3.25;;
56201;SDS011;42117;50.360;3.508;2022-10-01T01:29:53;3.38;;;2.70;;
56201;SDS011;42117;50.360;3.508;2022-10-01T01:32:31;0.85;;;0.85;;
56201;SDS011;42117;50.360;3.508;2022-10-01T01:34:58;0.70;;;0.70;;
56201;SDS011;42117;50.360;3.508;2022-10-01T01:37:26;0.10;;;0.10;;
56201;SDS011;42117;50.360;3.508;2022-10-01T01:39:54;0.10;;;0.10;;
56201;SDS011;42117;50.360;3.508;2022-10-01T01:42:25;0.15;;;0.15;;
56201;SDS011;42117;50.360;3.508;2022-10-01T01:44:53;0.47;;;0.47;;
56201;SDS011;42117;50.360;3.508;2022-10-01T01:47:22;3.38;;;2.60;;
56201;SDS011;42117;50.360;3.508;2022-10-01T01:49:50;3.70;;;3.05;;
56201;SDS011;42117;50.360;3.508;2022-10-01T01:52:17;3.55;;;2.03;;
56201;SDS011;42117;50.360;3.508;2022-10-01T01:54:43;2.45;;;2.10;;
56201;SDS011;42117;50.360;3.508;2022-10-01T01:57:11;2.70;;;1.85;;
56201;SDS011;42117;50.360;3.508;2022-10-01T01:59:38;2.35;;;2.08;;
56201;SDS011;42117;50.360;3.508;2022-10-01T02:02:05;3.50;;;2.40;;
56201;SDS011;42117;50.360;3.508;2022-10-01T02:14:39;2.08;;;1.98;;
56201;SDS011;42117;50.360;3.508;2022-10-01T02:17:14;1.70;;;1.58;;
56201;SDS011;42117;50.360;3.508;2022-10-01T02:19:47;1.55;;;1.40;;
56201;SDS011;42117;50.360;3.508;2022-10-01T02:22:27;2.28;;;1.48;;
56201;SDS011;42117;50.360;3.508;2022-10-01T02:24:57;0.82;;;0.82;;
56201;SDS011;42117;50.360;3.508;2022-10-01T02:27:26;1.80;;;1.70;;
56201;SDS011;42117;50.360;3.508;2022-10-01T02:29:54;0.73;;;0.73;;
56201;SDS011;42117;50.360;3.508;2022-10-01T02:32:22;1.35;;;1.25;;
56201;SDS011;42117;50.360;3.508;2022-10-01T02:34:48;2.53;;;2.33;;
56201;SDS011;42117;50.360;3.508;2022-10-01T02:37:15;1.95;;;1.73;;
56201;SDS011;42117;50.360;3.508;2022-10-01T02:39:42;1.70;;;1.60;;
56201;SDS011;42117;50.360;3.508;2022-10-01T02:42:09;1.58;;;1.08;;
56201;SDS011;42117;50.360;3.508;2022-10-01T02:44:36;0.93;;;0.93;;
56201;SDS011;42117;50.360;3.508;2022-10-01T02:47:11;1.08;;;1.00;;
56201;SDS011;42117;50.360;3.508;2022-10-01T02:49:39;0.30;;;0.30;;
56201;SDS011;42117;50.360;3.508;2022-10-01T02:52:11;0.10;;;0.10;;
56201;SDS011;42117;50.360;3.508;2022-10-01T02:57:15;1.63;;;1.50;;
56201;SDS011;42117;50.360;3.508;2022-10-01T03:00:10;5.07;;;0.80;;
56201;SDS011;42117;50.360;3.508;2022-10-01T03:02:34;1.10;;;1.00;;
56201;SDS011;42117;50.360;3.508;2022-10-01T03:05:00;0.82;;;0.82;;
56201;SDS011;42117;50.360;3.508;2022-10-01T03:07:27;0.50;;;0.50;;
56201;SDS011;42117;50.360;3.508;2022-10-01T03:09:54;0.40;;;0.40;;
56201;SDS011;42117;50.360;3.508;2022-10-01T03:12:21;2.58;;;1.00;;
56201;SDS011;42117;50.360;3.508;2022-10-01T03:14:47;0.85;;;0.85;;
56201;SDS011;42117;50.360;3.508;2022-10-01T03:17:14;1.25;;;0.88;;
56201;SDS011;42117;50.360;3.508;2022-10-01T03:19:40;0.40;;;0.40;;
56201;SDS011;42117;50.360;3.508;2022-10-01T03:22:06;1.00;;;1.00;;
56201;SDS011;42117;50.360;3.508;2022-10-01T03:24:33;5.32;;;0.90;;
56201;SDS011;42117;50.360;3.508;2022-10-01T03:26:59;0.85;;;0.85;;
56201;SDS011;42117;50.360;3.508;2022-10-01T03:29:25;0.70;;;0.70;;
56201;SDS011;42117;50.360;3.508;2022-10-01T03:31:51;7.95;;;1.25;;
56201;SDS011;42117;50.360;3.508;2022-10-01T03:34:17;0.45;;;0.45;;
56201;SDS011;42117;50.360;3.508;2022-10-01T03:36:44;0.73;;;0.50;;
56201;SDS011;42117;50.360;3.508;2022-10-01T03:39:11;0.70;;;0.70;;
56201;SDS011;42117;50.360;3.508;2022-10-01T03:41:37;1.65;;;0.85;;
56201;SDS011;42117;50.360;3.508;2022-10-01T03:44:04;1.42;;;1.05;;
56201;SDS011;42117;50.360;3.508;2022-10-01T03:46:30;0.35;;;0.35;;
56201;SDS011;42117;50.360;3.508;2022-10-01T03:48:56;0.50;;;0.50;;
56201;SDS011;42117;50.360;3.508;2022-10-01T03:51:24;0.50;;;0.50;;
56201;SDS011;42117;50.360;3.508;2022-10-01T03:53:51;1.05;;;0.95;;
56201;SDS011;42117;50.360;3.508;2022-10-01T03:56:17;1.58;;;1.15;;
56201;SDS011;42117;50.360;3.508;2022-10-01T03:58:43;0.95;;;0.95;;
56201;SDS011;42117;50.360;3.508;2022-10-01T04:01:09;0.55;;;0.55;;
56201;SDS011;42117;50.360;3.508;2022-10-01T04:03:35;0.20;;;0.20;;
56201;SDS011;42117;50.360;3.508;2022-10-01T04:06:01;0.55;;;0.55;;
56201;SDS011;42117;50.360;3.508;2022-10-01T04:08:27;0.28;;;0.28;;
56201;SDS011;42117;50.360;3.508;2022-10-01T04:10:53;0.30;;;0.30;;
56201;SDS011;42117;50.360;3.508;2022-10-01T04:13:19;0.50;;;0.50;;
56201;SDS011;42117;50.360;3.508;2022-10-01T04:15:45;0.50;;;0.50;;
56201;SDS011;42117;50.360;3.508;2022-10-01T04:18:12;0.65;;;0.50;;
56201;SDS011;42117;50.360;3.508;2022-10-01T04:20:42;0.98;;;0.90;;
56201;SDS011;42117;50.360;3.508;2022-10-01T04:23:08;2.92;;;0.30;;
56201;SDS011;42117;50.360;3.508;2022-10-01T04:25:34;0.20;;;0.20;;
56201;SDS011;42117;50.360;3.508;2022-10-01T04:28:01;1.50;;;0.57;;
56201;SDS011;42117;50.360;3.508;2022-10-01T04:30:32;0.75;;;0.75;;
56201;SDS011;42117;50.360;3.508;2022-10-01T04:32:58;0.50;;;0.50;;
56201;SDS011;42117;50.360;3.508;2022-10-01T04:35:24;0.47;;;0.47;;
56201;SDS011;42117;50.360;3.508;2022-10-01T04:37:54;2.45;;;1.33;;
56201;SDS011;42117;50.360;3.508;2022-10-01T04:40:20;0.43;;;0.43;;
56201;SDS011;42117;50.360;3.508;2022-10-01T04:42:46;0.43;;;0.43;;
56201;SDS011;42117;50.360;3.508;2022-10-01T04:45:12;0.28;;;0.28;;
56201;SDS011;42117;50.360;3.508;2022-10-01T04:47:45;0.88;;;0.30;;
56201;SDS011;42117;50.360;3.508;2022-10-01T04:50:12;0.17;;;0.17;;
56201;SDS011;42117;50.360;3.508;2022-10-01T04:52:39;0.88;;;0.85;;
56201;SDS011;42117;50.360;3.508;2022-10-01T04:55:05;0.40;;;0.40;;
56201;SDS011;42117;50.360;3.508;2022-10-01T04:57:32;0.52;;;0.45;;
56201;SDS011;42117;50.360;3.508;2022-10-01T04:59:58;0.28;;;0.28;;
56201;SDS011;42117;50.360;3.508;2022-10-01T05:02:24;0.43;;;0.40;;
56201;SDS011;42117;50.360;3.508;2022-10-01T05:04:50;0.47;;;0.47;;
56201;SDS011;42117;50.360;3.508;2022-10-01T05:07:16;0.68;;;0.68;;
56201;SDS011;42117;50.360;3.508;2022-10-01T05:09:43;0.50;;;0.50;;
56201;SDS011;42117;50.360;3.508;2022-10-01T05:12:09;0.40;;;0.40;;
56201;SDS011;42117;50.360;3.508;2022-10-01T05:14:35;0.20;;;0.20;;
56201;SDS011;42117;50.360;3.508;2022-10-01T05:17:01;3.33;;;0.70;;
56201;SDS011;42117;50.360;3.508;2022-10-01T05:19:27;2.65;;;1.08;;
56201;SDS011;42117;50.360;3.508;2022-10-01T05:21:53;0.95;;;0.95;;
56201;SDS011;42117;50.360;3.508;2022-10-01T05:24:19;1.67;;;0.63;;
56201;SDS011;42117;50.360;3.508;2022-10-01T05:26:45;0.35;;;0.35;;
56201;SDS011;42117;50.360;3.508;2022-10-01T05:29:11;0.98;;;0.57;;
56201;SDS011;42117;50.360;3.508;2022-10-01T05:31:39;0.20;;;0.20;;
56201;SDS011;42117;50.360;3.508;2022-10-01T05:34:08;0.35;;;0.35;;
56201;SDS011;42117;50.360;3.508;2022-10-01T05:36:34;5.68;;;0.90;;
56201;SDS011;42117;50.360;3.508;2022-10-01T05:39:00;0.70;;;0.70;;
56201;SDS011;42117;50.360;3.508;2022-10-01T05:41:26;0.57;;;0.45;;
56201;SDS011;42117;50.360;3.508;2022-10-01T05:43:52;0.68;;;0.52;;
56201;SDS011;42117;50.360;3.508;2022-10-01T05:46:18;0.98;;;0.63;;
56201;SDS011;42117;50.360;3.508;2022-10-01T05:48:44;0.35;;;0.35;;
56201;SDS011;42117;50.360;3.508;2022-10-01T05:51:14;0.70;;;0.43;;
56201;SDS011;42117;50.360;3.508;2022-10-01T05:53:40;0.40;;;0.40;;
56201;SDS011;42117;50.360;3.508;2022-10-01T05:56:06;0.77;;;0.55;;
56201;SDS011;42117;50.360;3.508;2022-10-01T05:58:32;1.30;;;0.60;;
56201;SDS011;42117;50.360;3.508;2022-10-01T06:00:58;0.57;;;0.25;;
56201;SDS011;42117;50.360;3.508;2022-10-01T06:03:24;2.00;;;0.73;;
56201;SDS011;42117;50.360;3.508;2022-10-01T06:05:53;0.37;;;0.37;;
56201;SDS011;42117;50.360;3.508;2022-10-01T06:08:20;1.27;;;0.75;;
56201;SDS011;42117;50.360;3.508;2022-10-01T06:10:46;4.55;;;0.93;;
56201;SDS011;42117;50.360;3.508;2022-10-01T06:13:13;4.38;;;0.57;;
56201;SDS011;42117;50.360;3.508;2022-10-01T06:15:42;0.57;;;0.57;;
56201;SDS011;42117;50.360;3.508;2022-10-01T06:18:09;0.75;;;0.75;;
56201;SDS011;42117;50.360;3.508;2022-10-01T06:20:35;2.95;;;0.95;;
56201;SDS011;42117;50.360;3.508;2022-10-01T06:23:02;0.70;;;0.70;;
56201;SDS011;42117;50.360;3.508;2022-10-01T06:25:35;0.38;;;0.38;;
56201;SDS011;42117;50.360;3.508;2022-10-01T06:28:02;3.72;;;0.68;;
56201;SDS011;42117;50.360;3.508;2022-10-01T06:30:30;0.90;;;0.60;;
56201;SDS011;42117;50.360;3.508;2022-10-01T06:32:59;9.80;;;1.90;;
56201;SDS011;42117;50.360;3.508;2022-10-01T06:35:31;11.15;;;0.63;;
56201;SDS011;42117;50.360;3.508;2022-10-01T06:37:58;0.60;;;0.60;;
56201;SDS011;42117;50.360;3.508;2022-10-01T06:40:27;1.42;;;1.02;;
56201;SDS011;42117;50.360;3.508;2022-10-01T06:42:53;7.97;;;0.93;;
56201;SDS011;42117;50.360;3.508;2022-10-01T06:45:22;2.38;;;0.57;;
56201;SDS011;42117;50.360;3.508;2022-10-01T06:47:52;1.05;;;0.90;;
56201;SDS011;42117;50.360;3.508;2022-10-01T06:50:18;6.72;;;1.48;;
56201;SDS011;42117;50.360;3.508;2022-10-01T06:52:44;2.42;;;1.00;;
56201;SDS011;42117;50.360;3.508;2022-10-01T06:55:13;2.42;;;1.35;;
56201;SDS011;42117;50.360;3.508;2022-10-01T06:57:39;1.63;;;0.90;;
56201;SDS011;42117;50.360;3.508;2022-10-01T07:00:05;5.88;;;1.30;;
56201;SDS011;42117;50.360;3.508;2022-10-01T07:02:32;3.53;;;0.93;;
56201;SDS011;42117;50.360;3.508;2022-10-01T07:04:58;6.93;;;1.10;;
56201;SDS011;42117;50.360;3.508;2022-10-01T07:07:30;1.08;;;0.75;;
56201;SDS011;42117;50.360;3.508;2022-10-01T07:09:59;0.75;;;0.52;;
56201;SDS011;42117;50.360;3.508;2022-10-01T07:12:25;14.77;;;2.10;;
56201;SDS011;42117;50.360;3.508;2022-10-01T07:14:51;16.92;;;1.58;;
56201;SDS011;42117;50.360;3.508;2022-10-01T07:17:17;10.85;;;1.52;;
56201;SDS011;42117;50.360;3.508;2022-10-01T07:19:44;3.90;;;1.90;;
56201;SDS011;42117;50.360;3.508;2022-10-01T07:22:10;14.52;;;2.92;;
56201;SDS011;42117;50.360;3.508;2022-10-01T07:24:35;2.28;;;1.13;;
56201;SDS011;42117;50.360;3.508;2022-10-01T07:27:02;6.22;;;1.30;;
56201;SDS011;42117;50.360;3.508;2022-10-01T07:29:28;4.30;;;0.60;;
56201;SDS011;42117;50.360;3.508;2022-10-01T07:31:55;9.45;;;1.65;;
56201;SDS011;42117;50.360;3.508;2022-10-01T07:34:23;10.43;;;1.30;;
56201;SDS011;42117;50.360;3.508;2022-10-01T07:36:49;7.85;;;1.10;;
56201;SDS011;42117;50.360;3.508;2022-10-01T07:39:15;0.82;;;0.82;;
56201;SDS011;42117;50.360;3.508;2022-10-01T07:41:41;4.70;;;1.33;;
56201;SDS011;42117;50.360;3.508;2022-10-01T07:44:08;4.53;;;1.08;;
56201;SDS011;42117;50.360;3.508;2022-10-01T07:46:36;10.60;;;1.45;;
56201;SDS011;42117;50.360;3.508;2022-10-01T07:49:02;0.40;;;0.40;;
56201;SDS011;42117;50.360;3.508;2022-10-01T07:51:28;6.57;;;1.55;;
56201;SDS011;42117;50.360;3.508;2022-10-01T07:53:54;8.70;;;1.02;;
56201;SDS011;42117;50.360;3.508;2022-10-01T07:56:20;3.00;;;1.27;;
56201;SDS011;42117;50.360;3.508;2022-10-01T07:58:46;9.57;;;1.33;;
56201;SDS011;42117;50.360;3.508;2022-10-01T08:01:12;3.47;;;0.70;;
56201;SDS011;42117;50.360;3.508;2022-10-01T08:03:38;14.13;;;3.10;;
56201;SDS011;42117;50.360;3.508;2022-10-01T08:06:04;2.58;;;1.20;;
56201;SDS011;42117;50.360;3.508;2022-10-01T08:08:31;7.55;;;1.42;;
56201;SDS011;42117;50.360;3.508;2022-10-01T08:10:57;1.45;;;0.98;;
56201;SDS011;42117;50.360;3.508;2022-10-01T08:13:26;8.70;;;2.22;;
56201;SDS011;42117;50.360;3.508;2022-10-01T08:15:52;7.55;;;1.80;;
56201;SDS011;42117;50.360;3.508;2022-10-01T08:18:22;4.50;;;1.10;;
56201;SDS011;42117;50.360;3.508;2022-10-01T08:20:48;12.23;;;1.50;;
56201;SDS011;42117;50.360;3.508;2022-10-01T08:23:14;7.63;;;2.55;;
56201;SDS011;42117;50.360;3.508;2022-10-01T08:25:41;8.05;;;1.48;;
56201;SDS011;42117;50.360;3.508;2022-10-01T08:28:11;2.92;;;1.35;;
56201;SDS011;42117;50.360;3.508;2022-10-01T08:30:38;5.25;;;1.13;;
56201;SDS011;42117;50.360;3.508;2022-10-01T08:33:04;6.63;;;2.40;;
56201;SDS011;42117;50.360;3.508;2022-10-01T08:35:30;14.30;;;2.50;;
56201;SDS011;42117;50.360;3.508;2022-10-01T08:38:00;10.27;;;1.77;;
56201;SDS011;42117;50.360;3.508;2022-10-01T08:40:26;5.93;;;0.98;;
56201;SDS011;42117;50.360;3.508;2022-10-01T08:42:56;5.30;;;1.60;;
56201;SDS011;42117;50.360;3.508;2022-10-01T08:48:30;11.23;;;2.10;;
56201;SDS011;42117;50.360;3.508;2022-10-01T08:51:25;3.85;;;1.73;;
56201;SDS011;42117;50.360;3.508;2022-10-01T08:53:52;20.77;;;2.58;;
56201;SDS011;42117;50.360;3.508;2022-10-01T08:56:21;6.75;;;1.55;;
56201;SDS011;42117;50.360;3.508;2022-10-01T08:58:59;10.32;;;1.98;;
56201;SDS011;42117;50.360;3.508;2022-10-01T09:01:25;16.10;;;2.20;;
56201;SDS011;42117;50.360;3.508;2022-10-01T09:03:53;13.32;;;2.47;;
56201;SDS011;42117;50.360;3.508;2022-10-01T09:06:20;14.68;;;1.63;;
56201;SDS011;42117;50.360;3.508;2022-10-01T09:16:46;6.38;;;1.55;;
56201;SDS011;42117;50.360;3.508;2022-10-01T09:26:55;15.80;;;2.22;;
56201;SDS011;42117;50.360;3.508;2022-10-01T09:29:38;8.55;;;1.70;;
56201;SDS011;42117;50.360;3.508;2022-10-01T09:32:05;4.20;;;1.45;;
56201;SDS011;42117;50.360;3.508;2022-10-01T09:34:38;16.77;;;1.70;;
56201;SDS011;42117;50.360;3.508;2022-10-01T09:40:01;1.17;;;1.13;;
56201;SDS011;42117;50.360;3.508;2022-10-01T09:42:28;13.32;;;1.42;;
56201;SDS011;42117;50.360;3.508;2022-10-01T09:44:58;7.75;;;2.10;;
56201;SDS011;42117;50.360;3.508;2022-10-01T09:47:24;10.43;;;2.58;;
56201;SDS011;42117;50.360;3.508;2022-10-01T09:49:50;9.55;;;2.25;;
56201;SDS011;42117;50.360;3.508;2022-10-01T09:52:23;15.38;;;2.83;;
56201;SDS011;42117;50.360;3.508;2022-10-01T09:55:00;6.45;;;1.40;;
56201;SDS011;42117;50.360;3.508;2022-10-01T10:02:38;8.98;;;1.35;;
56201;SDS011;42117;50.360;3.508;2022-10-01T10:05:10;1.33;;;0.90;;
56201;SDS011;42117;50.360;3.508;2022-10-01T10:07:37;2.65;;;0.85;;
56201;SDS011;42117;50.360;3.508;2022-10-01T10:10:09;5.72;;;1.02;;
56201;SDS011;42117;50.360;3.508;2022-10-01T10:12:43;4.85;;;1.08;;
56201;SDS011;42117;50.360;3.508;2022-10-01T10:15:16;2.08;;;0.45;;
56201;SDS011;42117;50.360;3.508;2022-10-01T10:17:44;5.32;;;1.88;;
56201;SDS011;42117;50.360;3.508;2022-10-01T10:22:39;6.63;;;1.10;;
56201;SDS011;42117;50.360;3.508;2022-10-01T10:25:12;7.20;;;1.63;;
56201;SDS011;42117;50.360;3.508;2022-10-01T10:27:51;4.15;;;1.17;;
56201;SDS011;42117;50.360;3.508;2022-10-01T10:30:19;7.97;;;1.05;;
56201;SDS011;42117;50.360;3.508;2022-10-01T10:32:46;1.67;;;1.02;;
56201;SDS011;42117;50.360;3.508;2022-10-01T10:35:24;5.47;;;1.17;;
56201;SDS011;42117;50.360;3.508;2022-10-01T10:37:51;3.50;;;1.33;;
56201;SDS011;42117;50.360;3.508;2022-10-01T10:40:22;7.80;;;1.27;;
56201;SDS011;42117;50.360;3.508;2022-10-01T10:42:50;3.50;;;1.10;;
56201;SDS011;42117;50.360;3.508;2022-10-01T10:45:17;1.48;;;0.95;;
56201;SDS011;42117;50.360;3.508;2022-10-01T10:47:45;8.43;;;2.83;;
56201;SDS011;42117;50.360;3.508;2022-10-01T10:52:54;7.28;;;1.77;;
56201;SDS011;42117;50.360;3.508;2022-10-01T10:55:22;1.58;;;1.40;;
56201;SDS011;42117;50.360;3.508;2022-10-01T10:57:49;21.17;;;1.35;;
56201;SDS011;42117;50.360;3.508;2022-10-01T11:00:18;2.75;;;1.27;;
56201;SDS011;42117;50.360;3.508;2022-10-01T11:02:48;14.75;;;1.83;;
56201;SDS011;42117;50.360;3.508;2022-10-01T11:05:22;4.43;;;0.95;;
56201;SDS011;42117;50.360;3.508;2022-10-01T11:07:49;2.45;;;1.65;;
56201;SDS011;42117;50.360;3.508;2022-10-01T11:28:49;2.28;;;0.80;;
56201;SDS011;42117;50.360;3.508;2022-10-01T11:31:28;2.92;;;1.35;;
56201;SDS011;42117;50.360;3.508;2022-10-01T11:34:06;1.90;;;0.73;;
56201;SDS011;42117;50.360;3.508;2022-10-01T11:39:28;3.28;;;0.93;;
56201;SDS011;42117;50.360;3.508;2022-10-01T11:42:06;6.80;;;1.75;;
56201;SDS011;42117;50.360;3.508;2022-10-01T11:44:55;4.10;;;0.85;;
56201;SDS011;42117;50.360;3.508;2022-10-01T11:52:21;3.72;;;1.35;;
56201;SDS011;42117;50.360;3.508;2022-10-01T11:54:59;1.77;;;0.55;;
56201;SDS011;42117;50.360;3.508;2022-10-01T11:57:50;2.45;;;0.73;;
56201;SDS011;42117;50.360;3.508;2022-10-01T12:00:36;5.35;;;0.80;;
56201;SDS011;42117;50.360;3.508;2022-10-01T12:03:03;4.57;;;1.20;;
56201;SDS011;42117;50.360;3.508;2022-10-01T12:05:31;2.15;;;1.10;;
56201;SDS011;42117;50.360;3.508;2022-10-01T12:08:11;1.88;;;0.70;;
56201;SDS011;42117;50.360;3.508;2022-10-01T12:18:32;3.83;;;0.95;;
56201;SDS011;42117;50.360;3.508;2022-10-01T12:21:02;4.90;;;1.10;;
56201;SDS011;42117;50.360;3.508;2022-10-01T12:23:29;5.07;;;0.90;;
56201;SDS011;42117;50.360;3.508;2022-10-01T12:26:06;0.93;;;0.55;;
56201;SDS011;42117;50.360;3.508;2022-10-01T12:28:38;5.22;;;0.77;;
56201;SDS011;42117;50.360;3.508;2022-10-01T12:31:07;3.60;;;0.93;;
56201;SDS011;42117;50.360;3.508;2022-10-01T12:33:52;1.75;;;0.90;;
56201;SDS011;42117;50.360;3.508;2022-10-01T12:47:13;1.33;;;0.75;;
56201;SDS011;42117;50.360;3.508;2022-10-01T12:49:49;1.83;;;1.73;;
56201;SDS011;42117;50.360;3.508;2022-10-01T13:10:34;1.27;;;0.63;;
56201;SDS011;42117;50.360;3.508;2022-10-01T13:13:10;4.18;;;0.70;;
56201;SDS011;42117;50.360;3.508;2022-10-01T13:15:38;1.38;;;0.63;;
56201;SDS011;42117;50.360;3.508;2022-10-01T13:20:42;10.98;;;1.73;;
56201;SDS011;42117;50.360;3.508;2022-10-01T13:28:22;6.57;;;1.50;;
56201;SDS011;42117;50.360;3.508;2022-10-01T13:31:01;4.10;;;0.98;;
56201;SDS011;42117;50.360;3.508;2022-10-01T13:33:34;5.53;;;1.40;;
56201;SDS011;42117;50.360;3.508;2022-10-01T13:36:02;1.02;;;0.63;;
56201;SDS011;42117;50.360;3.508;2022-10-01T13:38:37;2.78;;;1.05;;
56201;SDS011;42117;50.360;3.508;2022-10-01T13:41:05;3.00;;;0.60;;
56201;SDS011;42117;50.360;3.508;2022-10-01T13:43:31;7.10;;;1.25;;
56201;SDS011;42117;50.360;3.508;2022-10-01T13:46:05;3.53;;;1.15;;
56201;SDS011;42117;50.360;3.508;2022-10-01T13:48:32;2.78;;;1.33;;
56201;SDS011;42117;50.360;3.508;2022-10-01T13:53:30;5.00;;;0.82;;
56201;SDS011;42117;50.360;3.508;2022-10-01T13:55:57;2.95;;;1.13;;
56201;SDS011;42117;50.360;3.508;2022-10-01T13:58:30;0.77;;;0.38;;
56201;SDS011;42117;50.360;3.508;2022-10-01T14:00:57;2.63;;;0.60;;
56201;SDS011;42117;50.360;3.508;2022-10-01T14:08:24;14.10;;;2.17;;
56201;SDS011;42117;50.360;3.508;2022-10-01T14:10:55;5.32;;;1.45;;
56201;SDS011;42117;50.360;3.508;2022-10-01T14:13:42;8.65;;;1.00;;
56201;SDS011;42117;50.360;3.508;2022-10-01T14:16:29;4.85;;;1.25;;
56201;SDS011;42117;50.360;3.508;2022-10-01T14:18:55;2.78;;;1.10;;
56201;SDS011;42117;50.360;3.508;2022-10-01T14:21:30;3.65;;;1.02;;
56201;SDS011;42117;50.360;3.508;2022-10-01T14:34:26;1.45;;;0.70;;
56201;SDS011;42117;50.360;3.508;2022-10-01T14:36:54;5.18;;;1.20;;
56201;SDS011;42117;50.360;3.508;2022-10-01T14:41:47;7.72;;;1.70;;
56201;SDS011;42117;50.360;3.508;2022-10-01T14:46:46;5.88;;;0.95;;
56201;SDS011;42117;50.360;3.508;2022-10-01T14:49:23;1.90;;;0.90;;
56201;SDS011;42117;50.360;3.508;2022-10-01T14:51:50;3.03;;;0.93;;
56201;SDS011;42117;50.360;3.508;2022-10-01T14:54:17;3.85;;;1.58;;
56201;SDS011;42117;50.360;3.508;2022-10-01T14:56:44;7.45;;;1.40;;
56201;SDS011;42117;50.360;3.508;2022-10-01T14:59:13;4.80;;;1.05;;
56201;SDS011;42117;50.360;3.508;2022-10-01T15:01:51;3.97;;;1.30;;
56201;SDS011;42117;50.360;3.508;2022-10-01T15:04:18;1.08;;;0.77;;
56201;SDS011;42117;50.360;3.508;2022-10-01T15:06:45;1.65;;;0.93;;
56201;SDS011;42117;50.360;3.508;2022-10-01T15:09:12;3.10;;;1.38;;
56201;SDS011;42117;50.360;3.508;2022-10-01T15:11:39;2.10;;;1.02;;
56201;SDS011;42117;50.360;3.508;2022-10-01T15:14:09;1.70;;;1.55;;
56201;SDS011;42117;50.360;3.508;2022-10-01T15:16:38;13.77;;;1.67;;
56201;SDS011;42117;50.360;3.508;2022-10-01T15:19:05;0.80;;;0.75;;
56201;SDS011;42117;50.360;3.508;2022-10-01T15:21:36;7.70;;;1.90;;
56201;SDS011;42117;50.360;3.508;2022-10-01T15:24:03;2.40;;;1.30;;
56201;SDS011;42117;50.360;3.508;2022-10-01T15:26:30;9.02;;;1.40;;
56201;SDS011;42117;50.360;3.508;2022-10-01T15:29:03;8.05;;;1.85;;
56201;SDS011;42117;50.360;3.508;2022-10-01T15:31:30;10.88;;;2.10;;
56201;SDS011;42117;50.360;3.508;2022-10-01T15:33:59;9.15;;;1.33;;
56201;SDS011;42117;50.360;3.508;2022-10-01T15:36:25;11.50;;;3.17;;
56201;SDS011;42117;50.360;3.508;2022-10-01T15:38:52;4.45;;;1.38;;
56201;SDS011;42117;50.360;3.508;2022-10-01T15:41:29;5.45;;;1.10;;
56201;SDS011;42117;50.360;3.508;2022-10-01T15:44:01;13.88;;;1.92;;
56201;SDS011;42117;50.360;3.508;2022-10-01T15:46:28;4.07;;;2.15;;
56201;SDS011;42117;50.360;3.508;2022-10-01T15:51:36;4.68;;;2.00;;
56201;SDS011;42117;50.360;3.508;2022-10-01T15:54:10;12.55;;;2.08;;
56201;SDS011;42117;50.360;3.508;2022-10-01T15:56:39;4.05;;;1.65;;
56201;SDS011;42117;50.360;3.508;2022-10-01T15:59:14;8.73;;;1.67;;
56201;SDS011;42117;50.360;3.508;2022-10-01T16:01:41;4.70;;;1.48;;
56201;SDS011;42117;50.360;3.508;2022-10-01T16:04:08;2.78;;;1.42;;
56201;SDS011;42117;50.360;3.508;2022-10-01T16:09:15;9.85;;;2.05;;
56201;SDS011;42117;50.360;3.508;2022-10-01T16:14:29;7.55;;;1.40;;
56201;SDS011;42117;50.360;3.508;2022-10-01T16:19:40;18.27;;;3.42;;
56201;SDS011;42117;50.360;3.508;2022-10-01T16:25:00;2.65;;;1.48;;
56201;SDS011;42117;50.360;3.508;2022-10-01T16:30:20;7.05;;;1.23;;
56201;SDS011;42117;50.360;3.508;2022-10-01T16:32:46;4.55;;;1.00;;
56201;SDS011;42117;50.360;3.508;2022-10-01T16:35:23;9.35;;;2.05;;
56201;SDS011;42117;50.360;3.508;2022-10-01T16:37:50;11.95;;;2.15;;
56201;SDS011;42117;50.360;3.508;2022-10-01T16:40:17;10.90;;;1.52;;
56201;SDS011;42117;50.360;3.508;2022-10-01T16:42:43;3.05;;;1.25;;
56201;SDS011;42117;50.360;3.508;2022-10-01T16:47:46;9.38;;;1.80;;
56201;SDS011;42117;50.360;3.508;2022-10-01T16:50:14;11.07;;;2.35;;
56201;SDS011;42117;50.360;3.508;2022-10-01T16:52:40;7.07;;;1.30;;
56201;SDS011;42117;50.360;3.508;2022-10-01T16:57:48;1.52;;;1.38;;
56201;SDS011;42117;50.360;3.508;2022-10-01T17:00:15;5.22;;;1.20;;
56201;SDS011;42117;50.360;3.508;2022-10-01T17:02:41;7.32;;;1.83;;
56201;SDS011;42117;50.360;3.508;2022-10-01T17:05:18;4.30;;;1.70;;
56201;SDS011;42117;50.360;3.508;2022-10-01T17:07:46;6.40;;;1.35;;
56201;SDS011;42117;50.360;3.508;2022-10-01T17:10:13;5.88;;;1.38;;
56201;SDS011;42117;50.360;3.508;2022-10-01T17:12:40;1.27;;;1.05;;
56201;SDS011;42117;50.360;3.508;2022-10-01T17:15:07;5.47;;;1.90;;
56201;SDS011;42117;50.360;3.508;2022-10-01T17:17:33;13.57;;;2.05;;
56201;SDS011;42117;50.360;3.508;2022-10-01T17:19:59;7.68;;;1.67;;
56201;SDS011;42117;50.360;3.508;2022-10-01T17:22:25;11.93;;;1.40;;
56201;SDS011;42117;50.360;3.508;2022-10-01T17:24:51;6.10;;;1.55;;
56201;SDS011;42117;50.360;3.508;2022-10-01T17:27:17;8.30;;;1.73;;
56201;SDS011;42117;50.360;3.508;2022-10-01T17:29:43;1.90;;;1.13;;
56201;SDS011;42117;50.360;3.508;2022-10-01T17:32:09;3.85;;;1.15;;
56201;SDS011;42117;50.360;3.508;2022-10-01T17:34:36;13.20;;;2.35;;
56201;SDS011;42117;50.360;3.508;2022-10-01T17:37:02;7.65;;;1.83;;
56201;SDS011;42117;50.360;3.508;2022-10-01T17:39:28;2.75;;;1.45;;
56201;SDS011;42117;50.360;3.508;2022-10-01T17:41:54;14.50;;;1.92;;
56201;SDS011;42117;50.360;3.508;2022-10-01T17:44:20;14.75;;;1.52;;
56201;SDS011;42117;50.360;3.508;2022-10-01T17:46:46;1.88;;;1.23;;
56201;SDS011;42117;50.360;3.508;2022-10-01T17:49:12;5.45;;;1.33;;